X  Close Metar Aviation Weather Data     EGLF Farnborough Airport
Temperature
18°C Temperature
13°C Dewpoint
73% Humidity



Wind
13 MPH
21 KM/H
6 M/S
11 KTS



250°
WSW
Current Conditions

Partly Cloudy Partly Cloudy
Pressure 1007.79 (hPa) - 29.76 (inHg)
Visibility 6 (mile) - 9.7 (km)
Airport
Airport-code EGLF

Location: Farnborough Airport
Distance: 5 (mi)

Metar:
EGLF 160950Z 25011KT 9999 FEW016 SCT022 BKN038 18/13 Q1008

Time: 16-07-2024 10:50 BST